EGCCEIWF

Guest
Details From EGCC - Manchester Intl
To EIWF - Waterford
Flight Number -
Tags generated
Created
Modified
Stats Distance 188 nm / 349 km
Max Altitude 18,100 ft / 5,517 m
Waypoints 3
Social Downloads 0
Likes 0
Share VATSIM

Download

Looking for another format? Having issues loading an existing format? Contact us
Advertisement - Login to hide

Notes

Basic altitude profile: - Ascent Rate: 2500ft/min - Ascent Speed: 250kts - Cruise Altitude: 30000ft - Cruise Speed: 420kts - Descent Rate: 2500ft/min - Descent Speed: 250kts Options: - Use NATs: yes - Use PACOTS: yes - Use low airways: no - Use high airways: yes

Route

EGCC BADSI EIWF

ID Type Via Altitude Latitude Longitude Leg Dist Tot Dist Heading (true) Name
O EGCC APT - 0 ft / 0 m 53.34714˚ -2.28395˚ - 0 nm - Manchester Intl
BADSI FIX - 18,100 ft / 5,517 m 52.65833˚ -4.77139˚ 98 nm 98 nm 246° / 244° -
O EIWF APT - 0 ft / 0 m 52.18718˚ -7.08691˚ 89 nm 188 nm 252° / 251° Waterford

Altitude Profile

Advertisement - Login to hide

Weather


0- 5 10 15 20 25 30 35+ Temperature / ° C

Clouds and Precipitation
Forecast for 2018-05-27 18:00 UTC. Updated 33 minutes ago

Ground ~20,000 ft ~40,000 ft Winds

EGCC

Details ICAO EGCC (MAN)
Name Manchester Intl
Region United Kingdom
Timezone Europe/London (UTC+1.0)
Stats Elevation 257 ft / 78 m (AMSL)
Location 53.347141° -2.283954°
Runways 2
Magnetic Variation 1.391° W

METAR

EGCC 271720Z 09008KT 050V130 9999 FEW059CB FEW097TCU 22/10 Q1016 NOSIG

Decode

TAF

TAF EGCC 271055Z 2712/2818 06009KT 9999 FEW040 PROB30 TEMPO 2712/2720 08015G25KT 4000 +SHRA +TSRA

Decode

Departure Runways

ID Width Length Bearing (true) Bearing (mag) Surface Threshold Offset Overrun Length
05L 151 ft / 46 m 9,981 ft / 3,042 m 50.99° 52.38° Asphalt 1,401 ft / 427 m 0 ft / 0 m
05R 151 ft / 46 m 9,952 ft / 3,033 m 50.97° 52.36° Asphalt 0 ft / 0 m 26 ft / 8 m
23L 151 ft / 46 m 9,952 ft / 3,033 m 231.00° 232.39° Asphalt 561 ft / 171 m 0 ft / 0 m
23R 151 ft / 46 m 9,981 ft / 3,042 m 231.02° 232.41° Asphalt 597 ft / 182 m 0 ft / 0 m

EIWF

Details ICAO EIWF (WAT)
Name Waterford
Region Ireland
Timezone Europe/Dublin (UTC+1.0)
Stats Elevation 119 ft / 36 m (AMSL)
Location 52.187182° -7.086909°
Runways 1
Magnetic Variation 3.051° W

METAR

EIWF 271730Z 14008KT 110V170 9999 BKN046 16/14 Q1015

Decode

TAF

Not found

Destination Runways

ID Width Length Bearing (true) Bearing (mag) Surface Threshold Offset Overrun Length
03 98 ft / 30 m 4,700 ft / 1,433 m 20.96° 24.01° Asphalt 295 ft / 90 m 0 ft / 0 m
21 98 ft / 30 m 4,700 ft / 1,433 m 200.96° 204.01° Asphalt 469 ft / 143 m 0 ft / 0 m

Approach Navaids

Runway Type Ident Frequency Range Bearing (true) Bearing (mag) Slope Elevation
21 Localiser IWD 110.90 MHz 18 nm / 33 km 201.10° 204.15° - 86 ft / 26 m (AMSL)
21 Glidescope IWD 110.90 MHz 10 nm / 19 km 200.96° 204.01° 3.20° 29 ft / 9 m (AMSL)
21 DME IWD 110.90 MHz 18 nm / 33 km - - - 29 ft / 9 m (AMSL)

Popular Alternatives